sensor_id;sensor_type;location;lat;lon;timestamp;P1;durP1;ratioP1;P2;durP2;ratioP2
19810;SDS011;10065;49.632;8.346;2023-02-28T00:01:08;4.43;;;1.87;;
19810;SDS011;10065;49.632;8.346;2023-02-28T00:03:37;2.70;;;1.47;;
19810;SDS011;10065;49.632;8.346;2023-02-28T00:06:06;2.87;;;1.40;;
19810;SDS011;10065;49.632;8.346;2023-02-28T00:08:35;3.03;;;1.57;;
19810;SDS011;10065;49.632;8.346;2023-02-28T00:11:04;4.70;;;1.90;;
19810;SDS011;10065;49.632;8.346;2023-02-28T00:13:34;6.43;;;1.40;;
19810;SDS011;10065;49.632;8.346;2023-02-28T00:16:04;3.27;;;1.50;;
19810;SDS011;10065;49.632;8.346;2023-02-28T00:18:34;7.13;;;1.30;;
19810;SDS011;10065;49.632;8.346;2023-02-28T00:21:04;3.20;;;1.40;;
19810;SDS011;10065;49.632;8.346;2023-02-28T00:23:32;3.50;;;1.50;;
19810;SDS011;10065;49.632;8.346;2023-02-28T00:26:00;2.30;;;1.27;;
19810;SDS011;10065;49.632;8.346;2023-02-28T00:28:28;3.50;;;1.57;;
19810;SDS011;10065;49.632;8.346;2023-02-28T00:30:56;4.80;;;1.80;;
19810;SDS011;10065;49.632;8.346;2023-02-28T00:33:26;3.80;;;1.60;;
19810;SDS011;10065;49.632;8.346;2023-02-28T00:36:00;3.90;;;1.50;;
19810;SDS011;10065;49.632;8.346;2023-02-28T00:38:31;2.30;;;1.40;;
19810;SDS011;10065;49.632;8.346;2023-02-28T00:40:59;4.33;;;1.73;;
19810;SDS011;10065;49.632;8.346;2023-02-28T00:43:31;7.83;;;1.70;;
19810;SDS011;10065;49.632;8.346;2023-02-28T00:45:59;3.50;;;1.40;;
19810;SDS011;10065;49.632;8.346;2023-02-28T00:48:27;2.97;;;1.30;;
19810;SDS011;10065;49.632;8.346;2023-02-28T00:50:55;3.47;;;1.60;;
19810;SDS011;10065;49.632;8.346;2023-02-28T00:53:23;4.63;;;1.83;;
19810;SDS011;10065;49.632;8.346;2023-02-28T00:55:52;2.67;;;1.67;;
19810;SDS011;10065;49.632;8.346;2023-02-28T00:58:20;3.57;;;1.50;;
19810;SDS011;10065;49.632;8.346;2023-02-28T01:00:47;3.27;;;1.57;;
19810;SDS011;10065;49.632;8.346;2023-02-28T01:03:15;3.97;;;1.43;;
19810;SDS011;10065;49.632;8.346;2023-02-28T01:05:44;4.40;;;1.63;;
19810;SDS011;10065;49.632;8.346;2023-02-28T01:08:12;3.57;;;1.40;;
19810;SDS011;10065;49.632;8.346;2023-02-28T01:10:40;2.43;;;1.37;;
19810;SDS011;10065;49.632;8.346;2023-02-28T01:13:10;4.67;;;1.43;;
19810;SDS011;10065;49.632;8.346;2023-02-28T01:15:38;2.83;;;1.70;;
19810;SDS011;10065;49.632;8.346;2023-02-28T01:18:09;3.33;;;1.40;;
19810;SDS011;10065;49.632;8.346;2023-02-28T01:20:36;2.67;;;1.40;;
19810;SDS011;10065;49.632;8.346;2023-02-28T01:23:04;4.30;;;1.93;;
19810;SDS011;10065;49.632;8.346;2023-02-28T01:25:33;4.03;;;1.83;;
19810;SDS011;10065;49.632;8.346;2023-02-28T01:28:01;4.23;;;1.50;;
19810;SDS011;10065;49.632;8.346;2023-02-28T01:30:30;3.93;;;1.70;;
19810;SDS011;10065;49.632;8.346;2023-02-28T01:32:59;3.27;;;1.50;;
19810;SDS011;10065;49.632;8.346;2023-02-28T01:35:27;3.97;;;1.50;;
19810;SDS011;10065;49.632;8.346;2023-02-28T01:37:54;2.97;;;1.37;;
19810;SDS011;10065;49.632;8.346;2023-02-28T01:40:32;4.77;;;1.60;;
19810;SDS011;10065;49.632;8.346;2023-02-28T01:42:59;4.77;;;1.80;;
19810;SDS011;10065;49.632;8.346;2023-02-28T01:45:27;3.70;;;1.70;;
19810;SDS011;10065;49.632;8.346;2023-02-28T01:47:59;3.90;;;1.70;;
19810;SDS011;10065;49.632;8.346;2023-02-28T01:50:31;2.40;;;1.53;;
19810;SDS011;10065;49.632;8.346;2023-02-28T01:53:02;4.23;;;1.50;;
19810;SDS011;10065;49.632;8.346;2023-02-28T01:55:32;5.17;;;1.70;;
19810;SDS011;10065;49.632;8.346;2023-02-28T01:58:02;2.57;;;1.27;;
19810;SDS011;10065;49.632;8.346;2023-02-28T02:00:33;3.20;;;1.33;;
19810;SDS011;10065;49.632;8.346;2023-02-28T02:03:08;4.13;;;1.77;;
19810;SDS011;10065;49.632;8.346;2023-02-28T02:05:42;3.57;;;1.30;;
19810;SDS011;10065;49.632;8.346;2023-02-28T02:08:15;2.63;;;1.13;;
19810;SDS011;10065;49.632;8.346;2023-02-28T02:10:47;2.97;;;1.50;;
19810;SDS011;10065;49.632;8.346;2023-02-28T02:13:29;3.50;;;1.50;;
19810;SDS011;10065;49.632;8.346;2023-02-28T02:16:10;5.47;;;1.67;;
19810;SDS011;10065;49.632;8.346;2023-02-28T02:18:47;3.37;;;1.17;;
19810;SDS011;10065;49.632;8.346;2023-02-28T02:21:37;5.43;;;1.40;;
19810;SDS011;10065;49.632;8.346;2023-02-28T02:27:28;3.50;;;1.50;;
19810;SDS011;10065;49.632;8.346;2023-02-28T02:30:08;1.87;;;1.00;;
19810;SDS011;10065;49.632;8.346;2023-02-28T02:35:56;3.27;;;1.30;;
19810;SDS011;10065;49.632;8.346;2023-02-28T02:38:31;5.47;;;1.70;;
19810;SDS011;10065;49.632;8.346;2023-02-28T02:41:04;4.90;;;1.70;;
19810;SDS011;10065;49.632;8.346;2023-02-28T02:43:43;4.63;;;1.37;;
19810;SDS011;10065;49.632;8.346;2023-02-28T02:46:17;4.10;;;1.90;;
19810;SDS011;10065;49.632;8.346;2023-02-28T02:48:47;3.53;;;1.50;;
19810;SDS011;10065;49.632;8.346;2023-02-28T02:51:18;2.33;;;1.03;;
19810;SDS011;10065;49.632;8.346;2023-02-28T02:53:51;3.97;;;1.43;;
19810;SDS011;10065;49.632;8.346;2023-02-28T02:56:22;3.23;;;1.40;;
19810;SDS011;10065;49.632;8.346;2023-02-28T02:58:54;2.93;;;1.47;;
19810;SDS011;10065;49.632;8.346;2023-02-28T03:01:26;3.10;;;1.40;;
19810;SDS011;10065;49.632;8.346;2023-02-28T03:03:57;3.60;;;1.33;;
19810;SDS011;10065;49.632;8.346;2023-02-28T03:06:30;3.40;;;1.30;;
19810;SDS011;10065;49.632;8.346;2023-02-28T03:08:57;2.77;;;1.23;;
19810;SDS011;10065;49.632;8.346;2023-02-28T03:11:27;3.40;;;1.63;;
19810;SDS011;10065;49.632;8.346;2023-02-28T03:14:04;3.13;;;1.53;;
19810;SDS011;10065;49.632;8.346;2023-02-28T03:16:47;3.43;;;1.60;;
19810;SDS011;10065;49.632;8.346;2023-02-28T03:19:33;4.37;;;1.50;;
19810;SDS011;10065;49.632;8.346;2023-02-28T03:22:17;2.90;;;1.50;;
19810;SDS011;10065;49.632;8.346;2023-02-28T03:24:57;4.53;;;1.50;;
19810;SDS011;10065;49.632;8.346;2023-02-28T03:27:35;3.67;;;1.40;;
19810;SDS011;10065;49.632;8.346;2023-02-28T03:30:09;2.87;;;1.50;;
19810;SDS011;10065;49.632;8.346;2023-02-28T03:32:44;5.87;;;1.40;;
19810;SDS011;10065;49.632;8.346;2023-02-28T03:35:21;4.90;;;1.83;;
19810;SDS011;10065;49.632;8.346;2023-02-28T03:37:53;6.73;;;1.73;;
19810;SDS011;10065;49.632;8.346;2023-02-28T03:40:27;2.77;;;1.30;;
19810;SDS011;10065;49.632;8.346;2023-02-28T03:42:59;4.67;;;1.60;;
19810;SDS011;10065;49.632;8.346;2023-02-28T03:45:31;6.97;;;1.70;;
19810;SDS011;10065;49.632;8.346;2023-02-28T03:48:05;5.40;;;2.10;;
19810;SDS011;10065;49.632;8.346;2023-02-28T03:50:39;3.70;;;1.53;;
19810;SDS011;10065;49.632;8.346;2023-02-28T03:53:10;7.70;;;1.90;;
19810;SDS011;10065;49.632;8.346;2023-02-28T03:55:42;2.53;;;1.40;;
19810;SDS011;10065;49.632;8.346;2023-02-28T03:58:13;3.23;;;1.73;;
19810;SDS011;10065;49.632;8.346;2023-02-28T04:00:47;4.03;;;1.93;;
19810;SDS011;10065;49.632;8.346;2023-02-28T04:03:20;4.17;;;2.10;;
19810;SDS011;10065;49.632;8.346;2023-02-28T04:05:48;4.77;;;1.93;;
19810;SDS011;10065;49.632;8.346;2023-02-28T04:08:20;2.93;;;1.47;;
19810;SDS011;10065;49.632;8.346;2023-02-28T04:10:50;6.53;;;2.17;;
19810;SDS011;10065;49.632;8.346;2023-02-28T04:13:21;3.00;;;1.60;;
19810;SDS011;10065;49.632;8.346;2023-02-28T04:15:48;4.93;;;1.87;;
19810;SDS011;10065;49.632;8.346;2023-02-28T04:18:16;3.37;;;1.57;;
19810;SDS011;10065;49.632;8.346;2023-02-28T04:20:44;5.87;;;2.50;;
19810;SDS011;10065;49.632;8.346;2023-02-28T04:23:12;8.60;;;1.80;;
19810;SDS011;10065;49.632;8.346;2023-02-28T04:25:42;3.60;;;1.77;;
19810;SDS011;10065;49.632;8.346;2023-02-28T04:28:10;3.20;;;1.67;;
19810;SDS011;10065;49.632;8.346;2023-02-28T04:30:38;3.20;;;1.67;;
19810;SDS011;10065;49.632;8.346;2023-02-28T04:33:06;5.67;;;2.20;;
19810;SDS011;10065;49.632;8.346;2023-02-28T04:35:34;3.80;;;1.90;;
19810;SDS011;10065;49.632;8.346;2023-02-28T04:38:01;6.20;;;2.17;;
19810;SDS011;10065;49.632;8.346;2023-02-28T04:40:29;3.73;;;1.83;;
19810;SDS011;10065;49.632;8.346;2023-02-28T04:42:58;4.53;;;2.00;;
19810;SDS011;10065;49.632;8.346;2023-02-28T04:45:26;5.97;;;2.30;;
19810;SDS011;10065;49.632;8.346;2023-02-28T04:47:56;5.50;;;2.17;;
19810;SDS011;10065;49.632;8.346;2023-02-28T04:50:23;3.20;;;2.00;;
19810;SDS011;10065;49.632;8.346;2023-02-28T04:52:51;6.50;;;2.53;;
19810;SDS011;10065;49.632;8.346;2023-02-28T04:55:19;3.33;;;1.87;;
19810;SDS011;10065;49.632;8.346;2023-02-28T04:57:47;7.03;;;2.10;;
19810;SDS011;10065;49.632;8.346;2023-02-28T05:00:16;4.53;;;2.10;;
19810;SDS011;10065;49.632;8.346;2023-02-28T05:02:44;4.10;;;1.90;;
19810;SDS011;10065;49.632;8.346;2023-02-28T05:05:12;4.80;;;2.00;;
19810;SDS011;10065;49.632;8.346;2023-02-28T05:07:44;4.60;;;2.07;;
19810;SDS011;10065;49.632;8.346;2023-02-28T05:10:12;4.13;;;2.10;;
19810;SDS011;10065;49.632;8.346;2023-02-28T05:12:40;6.83;;;2.40;;
19810;SDS011;10065;49.632;8.346;2023-02-28T05:15:08;7.10;;;2.30;;
19810;SDS011;10065;49.632;8.346;2023-02-28T05:17:41;4.50;;;2.07;;
19810;SDS011;10065;49.632;8.346;2023-02-28T05:20:10;10.47;;;2.67;;
19810;SDS011;10065;49.632;8.346;2023-02-28T05:22:41;5.73;;;2.27;;
19810;SDS011;10065;49.632;8.346;2023-02-28T05:25:10;5.53;;;2.23;;
19810;SDS011;10065;49.632;8.346;2023-02-28T05:27:41;7.47;;;3.20;;
19810;SDS011;10065;49.632;8.346;2023-02-28T05:30:09;5.80;;;2.47;;
19810;SDS011;10065;49.632;8.346;2023-02-28T05:32:38;4.53;;;2.40;;
19810;SDS011;10065;49.632;8.346;2023-02-28T05:35:10;7.67;;;2.80;;
19810;SDS011;10065;49.632;8.346;2023-02-28T05:37:38;9.57;;;2.37;;
19810;SDS011;10065;49.632;8.346;2023-02-28T05:40:07;6.50;;;2.97;;
19810;SDS011;10065;49.632;8.346;2023-02-28T05:42:36;5.77;;;2.80;;
19810;SDS011;10065;49.632;8.346;2023-02-28T05:45:04;5.77;;;2.50;;
19810;SDS011;10065;49.632;8.346;2023-02-28T05:47:33;6.57;;;2.53;;
19810;SDS011;10065;49.632;8.346;2023-02-28T05:50:02;6.80;;;2.63;;
19810;SDS011;10065;49.632;8.346;2023-02-28T05:52:31;5.23;;;2.23;;
19810;SDS011;10065;49.632;8.346;2023-02-28T05:54:58;6.20;;;2.93;;
19810;SDS011;10065;49.632;8.346;2023-02-28T05:57:26;6.67;;;2.67;;
19810;SDS011;10065;49.632;8.346;2023-02-28T05:59:54;5.17;;;2.50;;
19810;SDS011;10065;49.632;8.346;2023-02-28T06:02:21;6.27;;;2.67;;
19810;SDS011;10065;49.632;8.346;2023-02-28T06:04:49;4.47;;;2.47;;
19810;SDS011;10065;49.632;8.346;2023-02-28T06:07:17;5.23;;;2.20;;
19810;SDS011;10065;49.632;8.346;2023-02-28T06:09:46;5.47;;;2.50;;
19810;SDS011;10065;49.632;8.346;2023-02-28T06:12:14;8.97;;;2.30;;
19810;SDS011;10065;49.632;8.346;2023-02-28T06:14:42;5.03;;;2.53;;
19810;SDS011;10065;49.632;8.346;2023-02-28T06:17:09;7.77;;;2.87;;
19810;SDS011;10065;49.632;8.346;2023-02-28T06:19:37;4.93;;;2.70;;
19810;SDS011;10065;49.632;8.346;2023-02-28T06:22:07;6.03;;;2.50;;
19810;SDS011;10065;49.632;8.346;2023-02-28T06:24:35;7.53;;;3.00;;
19810;SDS011;10065;49.632;8.346;2023-02-28T06:27:04;8.60;;;2.87;;
19810;SDS011;10065;49.632;8.346;2023-02-28T06:29:32;4.73;;;2.47;;
19810;SDS011;10065;49.632;8.346;2023-02-28T06:32:01;4.93;;;2.67;;
19810;SDS011;10065;49.632;8.346;2023-02-28T06:34:29;5.33;;;2.60;;
19810;SDS011;10065;49.632;8.346;2023-02-28T06:36:57;6.03;;;2.63;;
19810;SDS011;10065;49.632;8.346;2023-02-28T06:39:28;7.80;;;3.73;;
19810;SDS011;10065;49.632;8.346;2023-02-28T06:41:55;5.33;;;3.00;;
19810;SDS011;10065;49.632;8.346;2023-02-28T06:44:25;6.47;;;2.83;;
19810;SDS011;10065;49.632;8.346;2023-02-28T06:46:52;4.93;;;2.70;;
19810;SDS011;10065;49.632;8.346;2023-02-28T06:49:20;5.77;;;2.87;;
19810;SDS011;10065;49.632;8.346;2023-02-28T06:51:48;12.10;;;3.17;;
19810;SDS011;10065;49.632;8.346;2023-02-28T06:54:16;5.87;;;2.63;;
19810;SDS011;10065;49.632;8.346;2023-02-28T06:56:43;5.87;;;2.67;;
19810;SDS011;10065;49.632;8.346;2023-02-28T06:59:11;6.90;;;2.70;;
19810;SDS011;10065;49.632;8.346;2023-02-28T07:01:40;7.90;;;3.00;;
19810;SDS011;10065;49.632;8.346;2023-02-28T07:04:08;5.43;;;2.70;;
19810;SDS011;10065;49.632;8.346;2023-02-28T07:06:36;6.60;;;2.83;;
19810;SDS011;10065;49.632;8.346;2023-02-28T07:09:04;7.43;;;2.90;;
19810;SDS011;10065;49.632;8.346;2023-02-28T07:11:32;7.60;;;3.17;;
19810;SDS011;10065;49.632;8.346;2023-02-28T07:14:00;6.03;;;2.50;;
19810;SDS011;10065;49.632;8.346;2023-02-28T07:16:28;4.07;;;1.90;;
19810;SDS011;10065;49.632;8.346;2023-02-28T07:18:57;5.83;;;2.53;;
19810;SDS011;10065;49.632;8.346;2023-02-28T07:21:24;5.73;;;2.63;;
19810;SDS011;10065;49.632;8.346;2023-02-28T07:23:52;9.20;;;3.10;;
19810;SDS011;10065;49.632;8.346;2023-02-28T07:26:20;7.47;;;2.60;;
19810;SDS011;10065;49.632;8.346;2023-02-28T07:28:48;5.97;;;2.67;;
19810;SDS011;10065;49.632;8.346;2023-02-28T07:31:17;13.30;;;2.70;;
19810;SDS011;10065;49.632;8.346;2023-02-28T07:33:45;6.50;;;2.57;;
19810;SDS011;10065;49.632;8.346;2023-02-28T07:36:15;5.90;;;2.53;;
19810;SDS011;10065;49.632;8.346;2023-02-28T07:38:46;4.50;;;2.60;;
19810;SDS011;10065;49.632;8.346;2023-02-28T07:41:16;6.53;;;2.60;;
19810;SDS011;10065;49.632;8.346;2023-02-28T07:43:45;5.60;;;2.40;;
19810;SDS011;10065;49.632;8.346;2023-02-28T07:46:14;5.33;;;2.50;;
19810;SDS011;10065;49.632;8.346;2023-02-28T07:48:43;4.10;;;2.37;;
19810;SDS011;10065;49.632;8.346;2023-02-28T07:51:12;6.13;;;2.50;;
19810;SDS011;10065;49.632;8.346;2023-02-28T07:53:41;4.73;;;2.30;;
19810;SDS011;10065;49.632;8.346;2023-02-28T07:56:08;7.53;;;2.40;;
19810;SDS011;10065;49.632;8.346;2023-02-28T07:58:37;4.30;;;2.33;;
19810;SDS011;10065;49.632;8.346;2023-02-28T08:01:05;5.83;;;2.37;;
19810;SDS011;10065;49.632;8.346;2023-02-28T08:03:34;4.60;;;2.10;;
19810;SDS011;10065;49.632;8.346;2023-02-28T08:06:02;6.37;;;2.60;;
19810;SDS011;10065;49.632;8.346;2023-02-28T08:08:30;4.00;;;2.40;;
19810;SDS011;10065;49.632;8.346;2023-02-28T08:11:00;4.70;;;2.60;;
19810;SDS011;10065;49.632;8.346;2023-02-28T08:13:30;7.13;;;2.50;;
19810;SDS011;10065;49.632;8.346;2023-02-28T08:15:58;5.90;;;2.90;;
19810;SDS011;10065;49.632;8.346;2023-02-28T08:18:28;7.07;;;2.60;;
19810;SDS011;10065;49.632;8.346;2023-02-28T08:20:56;6.93;;;2.70;;
19810;SDS011;10065;49.632;8.346;2023-02-28T08:23:23;3.60;;;2.20;;
19810;SDS011;10065;49.632;8.346;2023-02-28T08:25:54;4.07;;;2.40;;
19810;SDS011;10065;49.632;8.346;2023-02-28T08:28:24;5.03;;;2.67;;
19810;SDS011;10065;49.632;8.346;2023-02-28T08:30:52;9.07;;;2.90;;
19810;SDS011;10065;49.632;8.346;2023-02-28T08:33:21;8.20;;;2.70;;
19810;SDS011;10065;49.632;8.346;2023-02-28T08:35:48;6.30;;;2.53;;
19810;SDS011;10065;49.632;8.346;2023-02-28T08:38:20;4.07;;;2.23;;
19810;SDS011;10065;49.632;8.346;2023-02-28T08:40:48;4.97;;;2.57;;
19810;SDS011;10065;49.632;8.346;2023-02-28T08:43:15;7.03;;;3.07;;
19810;SDS011;10065;49.632;8.346;2023-02-28T08:45:44;4.47;;;2.20;;
19810;SDS011;10065;49.632;8.346;2023-02-28T08:48:12;5.40;;;2.83;;
19810;SDS011;10065;49.632;8.346;2023-02-28T08:50:43;6.60;;;3.30;;
19810;SDS011;10065;49.632;8.346;2023-02-28T08:53:21;7.00;;;2.77;;
19810;SDS011;10065;49.632;8.346;2023-02-28T08:55:55;6.23;;;2.83;;
19810;SDS011;10065;49.632;8.346;2023-02-28T08:58:23;6.30;;;3.10;;
19810;SDS011;10065;49.632;8.346;2023-02-28T09:00:53;4.80;;;3.20;;
19810;SDS011;10065;49.632;8.346;2023-02-28T09:03:21;5.13;;;3.10;;
19810;SDS011;10065;49.632;8.346;2023-02-28T09:05:54;5.93;;;2.77;;
19810;SDS011;10065;49.632;8.346;2023-02-28T09:08:23;7.23;;;3.93;;
19810;SDS011;10065;49.632;8.346;2023-02-28T09:10:51;5.50;;;3.27;;
19810;SDS011;10065;49.632;8.346;2023-02-28T09:13:20;6.03;;;3.37;;
19810;SDS011;10065;49.632;8.346;2023-02-28T09:15:48;5.00;;;3.50;;
19810;SDS011;10065;49.632;8.346;2023-02-28T09:18:17;6.40;;;3.93;;
19810;SDS011;10065;49.632;8.346;2023-02-28T09:20:45;6.20;;;4.10;;
19810;SDS011;10065;49.632;8.346;2023-02-28T09:23:13;6.77;;;4.40;;
19810;SDS011;10065;49.632;8.346;2023-02-28T09:25:44;5.97;;;3.63;;
19810;SDS011;10065;49.632;8.346;2023-02-28T09:28:13;6.13;;;4.20;;
19810;SDS011;10065;49.632;8.346;2023-02-28T09:30:44;7.17;;;4.43;;
19810;SDS011;10065;49.632;8.346;2023-02-28T09:33:13;5.87;;;4.00;;
19810;SDS011;10065;49.632;8.346;2023-02-28T09:35:42;9.20;;;4.33;;
19810;SDS011;10065;49.632;8.346;2023-02-28T09:38:10;6.67;;;4.40;;
19810;SDS011;10065;49.632;8.346;2023-02-28T09:40:39;8.53;;;4.63;;
19810;SDS011;10065;49.632;8.346;2023-02-28T09:43:14;6.10;;;4.27;;
19810;SDS011;10065;49.632;8.346;2023-02-28T09:45:46;6.57;;;4.87;;
19810;SDS011;10065;49.632;8.346;2023-02-28T09:48:20;6.87;;;4.53;;
19810;SDS011;10065;49.632;8.346;2023-02-28T09:50:52;5.97;;;4.17;;
19810;SDS011;10065;49.632;8.346;2023-02-28T09:53:27;7.17;;;4.60;;
19810;SDS011;10065;49.632;8.346;2023-02-28T09:56:01;5.73;;;4.67;;
19810;SDS011;10065;49.632;8.346;2023-02-28T09:58:33;15.23;;;5.90;;
19810;SDS011;10065;49.632;8.346;2023-02-28T10:01:09;11.60;;;5.10;;
19810;SDS011;10065;49.632;8.346;2023-02-28T10:03:46;11.40;;;5.20;;
19810;SDS011;10065;49.632;8.346;2023-02-28T10:06:20;7.60;;;4.27;;
19810;SDS011;10065;49.632;8.346;2023-02-28T10:08:55;7.73;;;5.17;;
19810;SDS011;10065;49.632;8.346;2023-02-28T10:11:28;9.30;;;5.13;;
19810;SDS011;10065;49.632;8.346;2023-02-28T10:14:00;9.67;;;5.17;;
19810;SDS011;10065;49.632;8.346;2023-02-28T10:16:34;7.43;;;4.67;;
19810;SDS011;10065;49.632;8.346;2023-02-28T10:19:05;16.33;;;6.00;;
19810;SDS011;10065;49.632;8.346;2023-02-28T10:21:42;7.77;;;5.00;;
19810;SDS011;10065;49.632;8.346;2023-02-28T10:24:18;7.43;;;5.13;;
19810;SDS011;10065;49.632;8.346;2023-02-28T10:26:50;7.33;;;4.83;;
19810;SDS011;10065;49.632;8.346;2023-02-28T10:29:23;8.38;;;4.95;;
19810;SDS011;10065;49.632;8.346;2023-02-28T10:31:50;12.75;;;5.80;;
19810;SDS011;10065;49.632;8.346;2023-02-28T10:34:18;7.88;;;4.93;;
19810;SDS011;10065;49.632;8.346;2023-02-28T10:36:47;7.53;;;5.05;;
19810;SDS011;10065;49.632;8.346;2023-02-28T10:39:36;7.35;;;5.07;;
19810;SDS011;10065;49.632;8.346;2023-02-28T10:42:18;8.63;;;4.60;;
19810;SDS011;10065;49.632;8.346;2023-02-28T10:44:48;9.43;;;5.28;;
19810;SDS011;10065;49.632;8.346;2023-02-28T10:47:16;6.93;;;5.22;;
19810;SDS011;10065;49.632;8.346;2023-02-28T10:49:46;6.90;;;5.35;;
19810;SDS011;10065;49.632;8.346;2023-02-28T10:52:18;7.03;;;5.40;;
19810;SDS011;10065;49.632;8.346;2023-02-28T10:55:13;5.70;;;4.65;;
19810;SDS011;10065;49.632;8.346;2023-02-28T10:57:47;7.55;;;5.07;;
19810;SDS011;10065;49.632;8.346;2023-02-28T11:00:16;8.27;;;4.90;;
19810;SDS011;10065;49.632;8.346;2023-02-28T11:02:47;6.95;;;4.72;;
19810;SDS011;10065;49.632;8.346;2023-02-28T11:05:25;6.47;;;5.57;;
19810;SDS011;10065;49.632;8.346;2023-02-28T11:07:58;6.03;;;5.15;;
19810;SDS011;10065;49.632;8.346;2023-02-28T11:10:32;9.07;;;5.20;;
19810;SDS011;10065;49.632;8.346;2023-02-28T11:13:01;8.15;;;5.43;;
19810;SDS011;10065;49.632;8.346;2023-02-28T11:15:30;7.88;;;5.22;;
19810;SDS011;10065;49.632;8.346;2023-02-28T11:18:00;6.60;;;5.00;;
19810;SDS011;10065;49.632;8.346;2023-02-28T11:20:30;9.63;;;5.40;;
19810;SDS011;10065;49.632;8.346;2023-02-28T11:23:02;7.23;;;5.23;;
19810;SDS011;10065;49.632;8.346;2023-02-28T11:25:32;8.67;;;5.37;;
19810;SDS011;10065;49.632;8.346;2023-02-28T11:28:02;7.87;;;5.53;;
19810;SDS011;10065;49.632;8.346;2023-02-28T11:30:34;8.73;;;5.70;;
19810;SDS011;10065;49.632;8.346;2023-02-28T11:35:50;7.83;;;5.40;;
19810;SDS011;10065;49.632;8.346;2023-02-28T11:38:21;7.80;;;5.50;;
19810;SDS011;10065;49.632;8.346;2023-02-28T11:40:52;9.70;;;5.77;;
19810;SDS011;10065;49.632;8.346;2023-02-28T11:43:38;9.77;;;5.30;;
19810;SDS011;10065;49.632;8.346;2023-02-28T11:46:20;7.33;;;5.33;;
19810;SDS011;10065;49.632;8.346;2023-02-28T11:48:58;8.33;;;5.83;;
19810;SDS011;10065;49.632;8.346;2023-02-28T11:51:33;9.13;;;6.27;;
19810;SDS011;10065;49.632;8.346;2023-02-28T11:54:18;8.93;;;6.10;;
19810;SDS011;10065;49.632;8.346;2023-02-28T11:56:55;7.73;;;5.77;;
19810;SDS011;10065;49.632;8.346;2023-02-28T11:59:35;7.47;;;5.70;;
19810;SDS011;10065;49.632;8.346;2023-02-28T12:02:20;8.40;;;5.18;;
19810;SDS011;10065;49.632;8.346;2023-02-28T12:07:55;6.70;;;5.43;;
19810;SDS011;10065;49.632;8.346;2023-02-28T12:10:35;6.47;;;5.40;;
19810;SDS011;10065;49.632;8.346;2023-02-28T12:13:15;7.45;;;5.80;;
19810;SDS011;10065;49.632;8.346;2023-02-28T12:18:53;9.85;;;6.15;;
19810;SDS011;10065;49.632;8.346;2023-02-28T12:21:45;8.02;;;5.43;;
19810;SDS011;10065;49.632;8.346;2023-02-28T12:24:29;11.20;;;5.72;;
19810;SDS011;10065;49.632;8.346;2023-02-28T12:27:19;7.90;;;5.55;;
19810;SDS011;10065;49.632;8.346;2023-02-28T12:29:54;8.53;;;5.67;;
19810;SDS011;10065;49.632;8.346;2023-02-28T12:32:26;9.90;;;6.53;;
19810;SDS011;10065;49.632;8.346;2023-02-28T12:35:00;8.40;;;6.23;;
19810;SDS011;10065;49.632;8.346;2023-02-28T12:37:33;8.43;;;6.30;;
19810;SDS011;10065;49.632;8.346;2023-02-28T12:40:08;8.63;;;5.87;;
19810;SDS011;10065;49.632;8.346;2023-02-28T12:42:42;11.23;;;6.43;;
19810;SDS011;10065;49.632;8.346;2023-02-28T12:45:15;8.97;;;6.30;;
19810;SDS011;10065;49.632;8.346;2023-02-28T12:47:48;7.87;;;5.67;;
19810;SDS011;10065;49.632;8.346;2023-02-28T12:50:20;9.93;;;6.50;;
19810;SDS011;10065;49.632;8.346;2023-02-28T12:52:51;8.20;;;5.77;;
19810;SDS011;10065;49.632;8.346;2023-02-28T12:55:23;10.73;;;6.30;;
19810;SDS011;10065;49.632;8.346;2023-02-28T12:58:04;9.37;;;6.23;;
19810;SDS011;10065;49.632;8.346;2023-02-28T13:00:42;8.10;;;6.00;;
19810;SDS011;10065;49.632;8.346;2023-02-28T13:09:21;7.75;;;5.65;;
19810;SDS011;10065;49.632;8.346;2023-02-28T13:11:49;7.60;;;6.03;;
19810;SDS011;10065;49.632;8.346;2023-02-28T13:14:24;7.40;;;6.25;;
19810;SDS011;10065;49.632;8.346;2023-02-28T13:17:01;8.10;;;6.07;;
19810;SDS011;10065;49.632;8.346;2023-02-28T13:19:37;9.43;;;5.70;;
19810;SDS011;10065;49.632;8.346;2023-02-28T13:22:10;10.27;;;6.80;;
19810;SDS011;10065;49.632;8.346;2023-02-28T13:24:45;9.60;;;6.13;;
19810;SDS011;10065;49.632;8.346;2023-02-28T13:27:31;8.55;;;5.78;;
19810;SDS011;10065;49.632;8.346;2023-02-28T13:36:09;8.27;;;6.07;;
19810;SDS011;10065;49.632;8.346;2023-02-28T13:38:50;9.70;;;6.40;;
19810;SDS011;10065;49.632;8.346;2023-02-28T13:41:40;10.87;;;6.83;;
19810;SDS011;10065;49.632;8.346;2023-02-28T13:44:13;8.77;;;5.90;;
19810;SDS011;10065;49.632;8.346;2023-02-28T13:52:48;13.87;;;6.00;;
19810;SDS011;10065;49.632;8.346;2023-02-28T13:55:27;10.63;;;5.60;;
19810;SDS011;10065;49.632;8.346;2023-02-28T13:58:03;8.03;;;6.07;;
19810;SDS011;10065;49.632;8.346;2023-02-28T14:00:58;8.30;;;5.60;;
19810;SDS011;10065;49.632;8.346;2023-02-28T14:03:46;8.93;;;6.00;;
19810;SDS011;10065;49.632;8.346;2023-02-28T14:06:26;10.33;;;6.23;;
19810;SDS011;10065;49.632;8.346;2023-02-28T14:08:59;12.43;;;6.30;;
19810;SDS011;10065;49.632;8.346;2023-02-28T14:11:31;8.20;;;5.70;;
19810;SDS011;10065;49.632;8.346;2023-02-28T14:14:00;14.77;;;6.20;;
19810;SDS011;10065;49.632;8.346;2023-02-28T14:16:36;9.70;;;5.57;;
19810;SDS011;10065;49.632;8.346;2023-02-28T14:19:10;10.67;;;5.77;;
19810;SDS011;10065;49.632;8.346;2023-02-28T14:21:46;9.03;;;5.73;;
19810;SDS011;10065;49.632;8.346;2023-02-28T14:24:40;11.23;;;6.10;;
19810;SDS011;10065;49.632;8.346;2023-02-28T14:27:28;10.63;;;6.30;;
19810;SDS011;10065;49.632;8.346;2023-02-28T14:33:22;13.93;;;6.00;;
19810;SDS011;10065;49.632;8.346;2023-02-28T14:35:57;10.60;;;6.53;;
19810;SDS011;10065;49.632;8.346;2023-02-28T14:38:33;10.90;;;6.77;;
19810;SDS011;10065;49.632;8.346;2023-02-28T14:41:12;11.10;;;6.33;;
19810;SDS011;10065;49.632;8.346;2023-02-28T14:43:48;10.63;;;5.87;;
19810;SDS011;10065;49.632;8.346;2023-02-28T14:46:17;9.33;;;5.73;;
19810;SDS011;10065;49.632;8.346;2023-02-28T14:48:47;8.47;;;5.87;;
19810;SDS011;10065;49.632;8.346;2023-02-28T14:51:19;9.00;;;5.77;;
19810;SDS011;10065;49.632;8.346;2023-02-28T14:53:52;9.93;;;6.13;;
19810;SDS011;10065;49.632;8.346;2023-02-28T14:56:26;10.20;;;6.37;;
19810;SDS011;10065;49.632;8.346;2023-02-28T14:58:57;9.57;;;6.00;;
19810;SDS011;10065;49.632;8.346;2023-02-28T15:01:25;11.37;;;5.57;;
19810;SDS011;10065;49.632;8.346;2023-02-28T15:03:57;11.73;;;6.23;;
19810;SDS011;10065;49.632;8.346;2023-02-28T15:06:27;8.83;;;5.87;;
19810;SDS011;10065;49.632;8.346;2023-02-28T15:09:13;10.13;;;6.13;;
19810;SDS011;10065;49.632;8.346;2023-02-28T15:11:44;8.87;;;5.73;;
19810;SDS011;10065;49.632;8.346;2023-02-28T15:14:18;8.87;;;5.93;;
19810;SDS011;10065;49.632;8.346;2023-02-28T15:16:48;13.13;;;6.67;;
19810;SDS011;10065;49.632;8.346;2023-02-28T15:19:20;11.70;;;6.83;;
19810;SDS011;10065;49.632;8.346;2023-02-28T15:21:52;10.43;;;6.00;;
19810;SDS011;10065;49.632;8.346;2023-02-28T15:24:30;10.33;;;6.43;;
19810;SDS011;10065;49.632;8.346;2023-02-28T15:27:03;10.80;;;5.73;;
19810;SDS011;10065;49.632;8.346;2023-02-28T15:29:36;10.27;;;6.30;;
19810;SDS011;10065;49.632;8.346;2023-02-28T15:32:20;12.27;;;6.70;;
19810;SDS011;10065;49.632;8.346;2023-02-28T15:34:52;11.10;;;6.57;;
19810;SDS011;10065;49.632;8.346;2023-02-28T15:37:28;9.47;;;5.93;;
19810;SDS011;10065;49.632;8.346;2023-02-28T15:40:15;10.53;;;5.73;;
19810;SDS011;10065;49.632;8.346;2023-02-28T15:42:57;9.17;;;5.63;;
19810;SDS011;10065;49.632;8.346;2023-02-28T15:45:45;10.20;;;5.93;;
19810;SDS011;10065;49.632;8.346;2023-02-28T15:48:16;10.33;;;5.77;;
19810;SDS011;10065;49.632;8.346;2023-02-28T15:50:47;12.33;;;6.13;;